sensor_id;sensor_type;location;lat;lon;timestamp;P1;durP1;ratioP1;P2;durP2;ratioP2
11572;SDS011;5842;52.426;4.886;2022-12-18T00:13:25;78.80;;;23.87;;
11572;SDS011;5842;52.426;4.886;2022-12-18T00:16:00;84.60;;;24.70;;
11572;SDS011;5842;52.426;4.886;2022-12-18T00:18:32;76.63;;;25.87;;
11572;SDS011;5842;52.426;4.886;2022-12-18T00:21:35;81.23;;;25.50;;
11572;SDS011;5842;52.426;4.886;2022-12-18T08:28:22;30.47;;;14.03;;
11572;SDS011;5842;52.426;4.886;2022-12-18T08:30:55;32.90;;;14.43;;
11572;SDS011;5842;52.426;4.886;2022-12-18T08:33:41;34.63;;;14.13;;
11572;SDS011;5842;52.426;4.886;2022-12-18T08:39:32;29.77;;;13.87;;
11572;SDS011;5842;52.426;4.886;2022-12-18T08:43:07;35.40;;;14.03;;
11572;SDS011;5842;52.426;4.886;2022-12-18T08:45:11;30.77;;;13.87;;
11572;SDS011;5842;52.426;4.886;2022-12-18T08:47:39;30.13;;;15.00;;
11572;SDS011;5842;52.426;4.886;2022-12-18T08:50:08;30.33;;;15.33;;
11572;SDS011;5842;52.426;4.886;2022-12-18T08:52:37;34.23;;;15.00;;
11572;SDS011;5842;52.426;4.886;2022-12-18T08:55:04;35.03;;;15.57;;
11572;SDS011;5842;52.426;4.886;2022-12-18T08:57:32;33.77;;;16.47;;
11572;SDS011;5842;52.426;4.886;2022-12-18T08:59:59;30.30;;;14.27;;
11572;SDS011;5842;52.426;4.886;2022-12-18T09:02:28;34.27;;;16.47;;
11572;SDS011;5842;52.426;4.886;2022-12-18T09:04:56;36.50;;;17.60;;
11572;SDS011;5842;52.426;4.886;2022-12-18T09:07:23;34.37;;;16.60;;
11572;SDS011;5842;52.426;4.886;2022-12-18T09:09:51;31.47;;;16.67;;
11572;SDS011;5842;52.426;4.886;2022-12-18T09:12:18;33.30;;;17.17;;
11572;SDS011;5842;52.426;4.886;2022-12-18T09:14:46;33.13;;;16.90;;
11572;SDS011;5842;52.426;4.886;2022-12-18T09:17:14;31.17;;;16.80;;
11572;SDS011;5842;52.426;4.886;2022-12-18T09:19:43;32.37;;;15.93;;
11572;SDS011;5842;52.426;4.886;2022-12-18T09:22:10;29.53;;;16.47;;
11572;SDS011;5842;52.426;4.886;2022-12-18T09:24:40;28.97;;;16.77;;
11572;SDS011;5842;52.426;4.886;2022-12-18T09:27:08;30.10;;;16.40;;
11572;SDS011;5842;52.426;4.886;2022-12-18T09:29:35;33.60;;;16.87;;
11572;SDS011;5842;52.426;4.886;2022-12-18T09:32:03;34.47;;;16.50;;
11572;SDS011;5842;52.426;4.886;2022-12-18T09:34:31;30.33;;;16.87;;
11572;SDS011;5842;52.426;4.886;2022-12-18T09:37:00;29.90;;;16.50;;
11572;SDS011;5842;52.426;4.886;2022-12-18T09:39:27;28.98;;;19.42;;
11572;SDS011;5842;52.426;4.886;2022-12-18T09:41:55;28.35;;;19.33;;
11572;SDS011;5842;52.426;4.886;2022-12-18T09:44:25;27.27;;;19.30;;
11572;SDS011;5842;52.426;4.886;2022-12-18T09:46:57;27.50;;;19.00;;
11572;SDS011;5842;52.426;4.886;2022-12-18T09:49:28;27.93;;;16.67;;
11572;SDS011;5842;52.426;4.886;2022-12-18T09:51:59;26.03;;;15.13;;
11572;SDS011;5842;52.426;4.886;2022-12-18T09:54:31;25.70;;;15.07;;
11572;SDS011;5842;52.426;4.886;2022-12-18T09:57:01;24.90;;;15.07;;
11572;SDS011;5842;52.426;4.886;2022-12-18T09:59:30;22.63;;;14.20;;
11572;SDS011;5842;52.426;4.886;2022-12-18T10:01:59;25.53;;;14.73;;
11572;SDS011;5842;52.426;4.886;2022-12-18T10:04:26;23.13;;;13.33;;
11572;SDS011;5842;52.426;4.886;2022-12-18T10:06:58;25.73;;;15.20;;
11572;SDS011;5842;52.426;4.886;2022-12-18T10:09:28;27.17;;;15.80;;
11572;SDS011;5842;52.426;4.886;2022-12-18T10:12:02;26.57;;;15.00;;
11572;SDS011;5842;52.426;4.886;2022-12-18T10:14:34;24.93;;;14.30;;
11572;SDS011;5842;52.426;4.886;2022-12-18T10:17:07;25.17;;;14.73;;
11572;SDS011;5842;52.426;4.886;2022-12-18T10:19:42;26.80;;;15.57;;
11572;SDS011;5842;52.426;4.886;2022-12-18T10:22:20;27.03;;;15.40;;
11572;SDS011;5842;52.426;4.886;2022-12-18T10:24:50;26.27;;;15.63;;
11572;SDS011;5842;52.426;4.886;2022-12-18T10:27:24;27.23;;;15.30;;
11572;SDS011;5842;52.426;4.886;2022-12-18T10:29:52;26.37;;;15.13;;
11572;SDS011;5842;52.426;4.886;2022-12-18T10:32:20;24.63;;;15.33;;
11572;SDS011;5842;52.426;4.886;2022-12-18T10:34:48;23.83;;;14.47;;
11572;SDS011;5842;52.426;4.886;2022-12-18T10:37:16;22.13;;;13.90;;
11572;SDS011;5842;52.426;4.886;2022-12-18T10:39:44;25.30;;;14.13;;
11572;SDS011;5842;52.426;4.886;2022-12-18T10:42:16;24.00;;;14.43;;
11572;SDS011;5842;52.426;4.886;2022-12-18T10:44:45;22.57;;;13.70;;
11572;SDS011;5842;52.426;4.886;2022-12-18T10:47:14;21.80;;;13.80;;
11572;SDS011;5842;52.426;4.886;2022-12-18T10:49:47;23.87;;;14.00;;
11572;SDS011;5842;52.426;4.886;2022-12-18T10:52:15;22.97;;;13.97;;
11572;SDS011;5842;52.426;4.886;2022-12-18T10:54:48;22.77;;;14.40;;
11572;SDS011;5842;52.426;4.886;2022-12-18T10:57:32;21.90;;;13.53;;
11572;SDS011;5842;52.426;4.886;2022-12-18T11:00:19;28.93;;;13.60;;
11572;SDS011;5842;52.426;4.886;2022-12-18T11:02:47;23.23;;;13.73;;
11572;SDS011;5842;52.426;4.886;2022-12-18T11:05:25;24.70;;;14.03;;
11572;SDS011;5842;52.426;4.886;2022-12-18T11:07:52;22.53;;;13.20;;
11572;SDS011;5842;52.426;4.886;2022-12-18T11:10:21;23.60;;;14.27;;
11572;SDS011;5842;52.426;4.886;2022-12-18T11:12:48;20.60;;;13.30;;
11572;SDS011;5842;52.426;4.886;2022-12-18T11:15:21;22.63;;;13.53;;
11572;SDS011;5842;52.426;4.886;2022-12-18T11:18:04;21.30;;;13.17;;
11572;SDS011;5842;52.426;4.886;2022-12-18T11:20:32;22.67;;;13.13;;
11572;SDS011;5842;52.426;4.886;2022-12-18T11:23:02;22.60;;;13.23;;
11572;SDS011;5842;52.426;4.886;2022-12-18T11:25:31;20.97;;;13.57;;
11572;SDS011;5842;52.426;4.886;2022-12-18T11:28:00;21.90;;;13.60;;
11572;SDS011;5842;52.426;4.886;2022-12-18T11:30:30;24.00;;;13.43;;
11572;SDS011;5842;52.426;4.886;2022-12-18T11:32:59;21.83;;;13.87;;
11572;SDS011;5842;52.426;4.886;2022-12-18T11:35:32;23.53;;;13.23;;
11572;SDS011;5842;52.426;4.886;2022-12-18T11:38:02;20.23;;;12.33;;
11572;SDS011;5842;52.426;4.886;2022-12-18T11:40:33;22.90;;;12.67;;
11572;SDS011;5842;52.426;4.886;2022-12-18T11:43:04;21.53;;;13.07;;
11572;SDS011;5842;52.426;4.886;2022-12-18T11:48:58;21.57;;;12.73;;
11572;SDS011;5842;52.426;4.886;2022-12-18T12:22:11;21.93;;;12.90;;
11572;SDS011;5842;52.426;4.886;2022-12-18T12:24:45;21.27;;;12.70;;
11572;SDS011;5842;52.426;4.886;2022-12-18T12:27:17;25.17;;;13.60;;
11572;SDS011;5842;52.426;4.886;2022-12-18T12:29:50;21.67;;;12.30;;
11572;SDS011;5842;52.426;4.886;2022-12-18T12:32:26;21.87;;;12.37;;
11572;SDS011;5842;52.426;4.886;2022-12-18T12:35:01;22.30;;;13.60;;
11572;SDS011;5842;52.426;4.886;2022-12-18T12:37:34;21.53;;;12.43;;
11572;SDS011;5842;52.426;4.886;2022-12-18T12:40:05;20.77;;;12.77;;
11572;SDS011;5842;52.426;4.886;2022-12-18T12:42:33;21.60;;;12.53;;
11572;SDS011;5842;52.426;4.886;2022-12-18T12:45:21;24.87;;;13.07;;
11572;SDS011;5842;52.426;4.886;2022-12-18T12:47:49;20.77;;;12.83;;
11572;SDS011;5842;52.426;4.886;2022-12-18T12:50:19;19.73;;;12.20;;
11572;SDS011;5842;52.426;4.886;2022-12-18T12:52:49;23.20;;;12.77;;
11572;SDS011;5842;52.426;4.886;2022-12-18T12:55:18;19.30;;;12.07;;
11572;SDS011;5842;52.426;4.886;2022-12-18T12:57:48;21.67;;;12.67;;
11572;SDS011;5842;52.426;4.886;2022-12-18T13:00:18;21.67;;;13.10;;
11572;SDS011;5842;52.426;4.886;2022-12-18T13:02:47;21.60;;;12.80;;
11572;SDS011;5842;52.426;4.886;2022-12-18T13:05:19;19.70;;;12.30;;
11572;SDS011;5842;52.426;4.886;2022-12-18T13:07:51;19.80;;;12.83;;
11572;SDS011;5842;52.426;4.886;2022-12-18T13:10:25;22.83;;;12.73;;
11572;SDS011;5842;52.426;4.886;2022-12-18T13:12:56;21.00;;;12.87;;
11572;SDS011;5842;52.426;4.886;2022-12-18T13:15:23;25.33;;;13.00;;
11572;SDS011;5842;52.426;4.886;2022-12-18T13:18:02;21.97;;;13.33;;
11572;SDS011;5842;52.426;4.886;2022-12-18T13:20:32;20.90;;;13.03;;
11572;SDS011;5842;52.426;4.886;2022-12-18T13:23:27;23.53;;;13.10;;
11572;SDS011;5842;52.426;4.886;2022-12-18T13:25:55;20.93;;;12.30;;
11572;SDS011;5842;52.426;4.886;2022-12-18T13:28:23;22.07;;;13.00;;
11572;SDS011;5842;52.426;4.886;2022-12-18T13:30:52;22.37;;;12.27;;
11572;SDS011;5842;52.426;4.886;2022-12-18T13:33:36;24.23;;;13.40;;
11572;SDS011;5842;52.426;4.886;2022-12-18T13:36:09;20.07;;;12.47;;
11572;SDS011;5842;52.426;4.886;2022-12-18T13:38:41;27.37;;;13.67;;
11572;SDS011;5842;52.426;4.886;2022-12-18T13:41:23;21.57;;;12.70;;
11572;SDS011;5842;52.426;4.886;2022-12-18T13:43:51;23.70;;;12.70;;
11572;SDS011;5842;52.426;4.886;2022-12-18T13:46:22;21.33;;;12.47;;
11572;SDS011;5842;52.426;4.886;2022-12-18T13:48:52;20.47;;;12.27;;
11572;SDS011;5842;52.426;4.886;2022-12-18T13:51:21;21.07;;;12.33;;
11572;SDS011;5842;52.426;4.886;2022-12-18T13:53:51;21.50;;;12.53;;
11572;SDS011;5842;52.426;4.886;2022-12-18T13:56:21;19.93;;;12.30;;
11572;SDS011;5842;52.426;4.886;2022-12-18T13:59:05;21.47;;;12.67;;
11572;SDS011;5842;52.426;4.886;2022-12-18T14:01:34;21.80;;;12.70;;
11572;SDS011;5842;52.426;4.886;2022-12-18T14:04:11;22.53;;;13.57;;
11572;SDS011;5842;52.426;4.886;2022-12-18T14:06:38;22.10;;;12.80;;
11572;SDS011;5842;52.426;4.886;2022-12-18T14:09:13;21.80;;;12.80;;
11572;SDS011;5842;52.426;4.886;2022-12-18T14:11:45;24.50;;;13.03;;
11572;SDS011;5842;52.426;4.886;2022-12-18T14:14:14;22.07;;;13.07;;
11572;SDS011;5842;52.426;4.886;2022-12-18T14:16:41;20.93;;;12.93;;
11572;SDS011;5842;52.426;4.886;2022-12-18T14:19:10;20.83;;;12.90;;
11572;SDS011;5842;52.426;4.886;2022-12-18T14:21:39;20.47;;;12.43;;
11572;SDS011;5842;52.426;4.886;2022-12-18T14:24:14;22.93;;;13.17;;
11572;SDS011;5842;52.426;4.886;2022-12-18T14:26:41;21.47;;;12.37;;
11572;SDS011;5842;52.426;4.886;2022-12-18T14:32:05;20.53;;;12.67;;
11572;SDS011;5842;52.426;4.886;2022-12-18T14:34:32;21.50;;;12.80;;
11572;SDS011;5842;52.426;4.886;2022-12-18T14:37:00;19.80;;;11.87;;
11572;SDS011;5842;52.426;4.886;2022-12-18T14:39:29;22.53;;;12.43;;
11572;SDS011;5842;52.426;4.886;2022-12-18T14:41:56;21.73;;;12.57;;
11572;SDS011;5842;52.426;4.886;2022-12-18T14:44:24;22.27;;;13.03;;
11572;SDS011;5842;52.426;4.886;2022-12-18T14:46:52;24.23;;;12.67;;
11572;SDS011;5842;52.426;4.886;2022-12-18T14:49:22;22.37;;;13.20;;
11572;SDS011;5842;52.426;4.886;2022-12-18T14:51:51;20.93;;;12.20;;
11572;SDS011;5842;52.426;4.886;2022-12-18T14:54:22;20.97;;;13.20;;
11572;SDS011;5842;52.426;4.886;2022-12-18T14:56:51;21.70;;;12.97;;
11572;SDS011;5842;52.426;4.886;2022-12-18T14:59:26;22.07;;;12.70;;
11572;SDS011;5842;52.426;4.886;2022-12-18T15:02:02;22.20;;;13.43;;
11572;SDS011;5842;52.426;4.886;2022-12-18T15:04:33;23.70;;;13.63;;
11572;SDS011;5842;52.426;4.886;2022-12-18T15:07:07;22.07;;;13.27;;
11572;SDS011;5842;52.426;4.886;2022-12-18T15:09:35;21.47;;;13.20;;
11572;SDS011;5842;52.426;4.886;2022-12-18T15:12:05;22.30;;;13.20;;
11572;SDS011;5842;52.426;4.886;2022-12-18T15:14:34;23.10;;;13.80;;
11572;SDS011;5842;52.426;4.886;2022-12-18T15:17:03;24.07;;;13.40;;
11572;SDS011;5842;52.426;4.886;2022-12-18T15:19:35;21.17;;;12.93;;
11572;SDS011;5842;52.426;4.886;2022-12-18T15:22:02;24.57;;;13.47;;
11572;SDS011;5842;52.426;4.886;2022-12-18T15:24:30;24.00;;;13.43;;
11572;SDS011;5842;52.426;4.886;2022-12-18T15:26:58;24.00;;;13.70;;
11572;SDS011;5842;52.426;4.886;2022-12-18T15:29:30;25.17;;;13.83;;
11572;SDS011;5842;52.426;4.886;2022-12-18T15:31:58;22.73;;;13.13;;
11572;SDS011;5842;52.426;4.886;2022-12-18T15:34:25;25.47;;;14.23;;
11572;SDS011;5842;52.426;4.886;2022-12-18T15:36:54;23.70;;;14.07;;
11572;SDS011;5842;52.426;4.886;2022-12-18T15:39:21;24.20;;;13.37;;
11572;SDS011;5842;52.426;4.886;2022-12-18T15:41:51;22.63;;;13.83;;
11572;SDS011;5842;52.426;4.886;2022-12-18T15:44:37;24.07;;;13.37;;
11572;SDS011;5842;52.426;4.886;2022-12-18T15:47:10;22.70;;;13.17;;
11572;SDS011;5842;52.426;4.886;2022-12-18T15:49:38;22.80;;;13.40;;
11572;SDS011;5842;52.426;4.886;2022-12-18T15:52:06;24.00;;;13.70;;
11572;SDS011;5842;52.426;4.886;2022-12-18T15:54:35;23.97;;;13.60;;
11572;SDS011;5842;52.426;4.886;2022-12-18T15:57:22;25.80;;;14.70;;
11572;SDS011;5842;52.426;4.886;2022-12-18T15:59:52;26.07;;;14.83;;
11572;SDS011;5842;52.426;4.886;2022-12-18T16:02:22;23.17;;;14.30;;
11572;SDS011;5842;52.426;4.886;2022-12-18T16:04:50;25.10;;;14.33;;
11572;SDS011;5842;52.426;4.886;2022-12-18T16:07:18;25.33;;;14.13;;
11572;SDS011;5842;52.426;4.886;2022-12-18T16:09:46;22.07;;;13.20;;
11572;SDS011;5842;52.426;4.886;2022-12-18T16:12:16;22.73;;;13.77;;
11572;SDS011;5842;52.426;4.886;2022-12-18T16:14:45;23.20;;;12.97;;
11572;SDS011;5842;52.426;4.886;2022-12-18T16:17:14;24.10;;;13.57;;
11572;SDS011;5842;52.426;4.886;2022-12-18T16:19:41;22.40;;;13.87;;
11572;SDS011;5842;52.426;4.886;2022-12-18T16:22:15;23.03;;;13.60;;
11572;SDS011;5842;52.426;4.886;2022-12-18T16:24:45;22.90;;;13.83;;
11572;SDS011;5842;52.426;4.886;2022-12-18T16:27:12;22.40;;;12.97;;
11572;SDS011;5842;52.426;4.886;2022-12-18T16:29:40;24.17;;;13.83;;
11572;SDS011;5842;52.426;4.886;2022-12-18T16:32:08;21.43;;;13.10;;
11572;SDS011;5842;52.426;4.886;2022-12-18T16:34:40;23.77;;;13.90;;
11572;SDS011;5842;52.426;4.886;2022-12-18T16:37:09;23.87;;;13.60;;
11572;SDS011;5842;52.426;4.886;2022-12-18T16:39:37;22.67;;;13.27;;
11572;SDS011;5842;52.426;4.886;2022-12-18T16:42:05;23.80;;;13.93;;
11572;SDS011;5842;52.426;4.886;2022-12-18T16:44:37;24.70;;;13.37;;
11572;SDS011;5842;52.426;4.886;2022-12-18T16:47:05;25.67;;;14.87;;
11572;SDS011;5842;52.426;4.886;2022-12-18T16:49:33;24.67;;;14.60;;
11572;SDS011;5842;52.426;4.886;2022-12-18T16:52:02;25.13;;;14.47;;
11572;SDS011;5842;52.426;4.886;2022-12-18T16:54:29;25.43;;;14.73;;
11572;SDS011;5842;52.426;4.886;2022-12-18T16:56:58;23.33;;;13.87;;
11572;SDS011;5842;52.426;4.886;2022-12-18T16:59:26;27.30;;;14.30;;
11572;SDS011;5842;52.426;4.886;2022-12-18T17:01:53;26.33;;;15.10;;
11572;SDS011;5842;52.426;4.886;2022-12-18T17:04:21;25.97;;;14.77;;
11572;SDS011;5842;52.426;4.886;2022-12-18T17:06:51;25.87;;;14.30;;
11572;SDS011;5842;52.426;4.886;2022-12-18T17:09:20;24.43;;;15.03;;
11572;SDS011;5842;52.426;4.886;2022-12-18T17:11:49;26.10;;;14.70;;
11572;SDS011;5842;52.426;4.886;2022-12-18T17:14:17;26.30;;;15.27;;
11572;SDS011;5842;52.426;4.886;2022-12-18T17:16:47;27.47;;;14.70;;
11572;SDS011;5842;52.426;4.886;2022-12-18T17:19:15;24.07;;;13.97;;
11572;SDS011;5842;52.426;4.886;2022-12-18T17:21:43;25.67;;;14.30;;
11572;SDS011;5842;52.426;4.886;2022-12-18T17:24:10;26.90;;;14.87;;
11572;SDS011;5842;52.426;4.886;2022-12-18T17:26:41;25.07;;;14.70;;
11572;SDS011;5842;52.426;4.886;2022-12-18T17:29:09;21.97;;;13.97;;
11572;SDS011;5842;52.426;4.886;2022-12-18T17:31:39;27.53;;;14.90;;
11572;SDS011;5842;52.426;4.886;2022-12-18T17:34:08;24.67;;;14.43;;
11572;SDS011;5842;52.426;4.886;2022-12-18T17:36:36;26.00;;;14.70;;
11572;SDS011;5842;52.426;4.886;2022-12-18T17:39:06;24.13;;;14.60;;
11572;SDS011;5842;52.426;4.886;2022-12-18T17:41:34;24.67;;;14.43;;
11572;SDS011;5842;52.426;4.886;2022-12-18T17:44:04;25.87;;;14.70;;
11572;SDS011;5842;52.426;4.886;2022-12-18T17:46:37;26.13;;;14.70;;
11572;SDS011;5842;52.426;4.886;2022-12-18T17:49:04;24.07;;;14.57;;
11572;SDS011;5842;52.426;4.886;2022-12-18T17:51:32;27.50;;;14.73;;
11572;SDS011;5842;52.426;4.886;2022-12-18T17:54:00;26.97;;;15.53;;
11572;SDS011;5842;52.426;4.886;2022-12-18T17:56:32;27.40;;;15.50;;
11572;SDS011;5842;52.426;4.886;2022-12-18T17:59:11;25.47;;;14.67;;
11572;SDS011;5842;52.426;4.886;2022-12-18T18:01:41;29.47;;;15.57;;
11572;SDS011;5842;52.426;4.886;2022-12-18T18:04:08;28.67;;;15.80;;
11572;SDS011;5842;52.426;4.886;2022-12-18T18:06:36;23.47;;;14.03;;
11572;SDS011;5842;52.426;4.886;2022-12-18T18:09:03;25.27;;;15.27;;
11572;SDS011;5842;52.426;4.886;2022-12-18T18:11:31;25.60;;;14.73;;
11572;SDS011;5842;52.426;4.886;2022-12-18T18:14:18;27.23;;;15.43;;
11572;SDS011;5842;52.426;4.886;2022-12-18T18:16:47;27.30;;;15.37;;
11572;SDS011;5842;52.426;4.886;2022-12-18T18:19:15;27.57;;;15.80;;
11572;SDS011;5842;52.426;4.886;2022-12-18T18:21:43;26.17;;;15.33;;
11572;SDS011;5842;52.426;4.886;2022-12-18T18:24:12;27.30;;;15.10;;
11572;SDS011;5842;52.426;4.886;2022-12-18T18:26:40;26.43;;;14.67;;
11572;SDS011;5842;52.426;4.886;2022-12-18T18:29:11;27.47;;;14.17;;
11572;SDS011;5842;52.426;4.886;2022-12-18T18:31:46;27.47;;;15.43;;
11572;SDS011;5842;52.426;4.886;2022-12-18T18:34:14;27.97;;;15.10;;
11572;SDS011;5842;52.426;4.886;2022-12-18T18:36:50;27.73;;;15.77;;
11572;SDS011;5842;52.426;4.886;2022-12-18T18:39:19;29.53;;;16.13;;
11572;SDS011;5842;52.426;4.886;2022-12-18T18:41:47;27.40;;;15.77;;
11572;SDS011;5842;52.426;4.886;2022-12-18T18:44:15;24.63;;;14.73;;
11572;SDS011;5842;52.426;4.886;2022-12-18T18:46:44;25.53;;;15.40;;
11572;SDS011;5842;52.426;4.886;2022-12-18T18:49:12;26.93;;;15.60;;
11572;SDS011;5842;52.426;4.886;2022-12-18T18:51:40;25.77;;;14.80;;
11572;SDS011;5842;52.426;4.886;2022-12-18T18:54:10;28.47;;;15.30;;
11572;SDS011;5842;52.426;4.886;2022-12-18T18:56:41;26.37;;;15.70;;
11572;SDS011;5842;52.426;4.886;2022-12-18T18:59:08;26.60;;;15.50;;
11572;SDS011;5842;52.426;4.886;2022-12-18T19:01:35;26.13;;;14.33;;
11572;SDS011;5842;52.426;4.886;2022-12-18T19:04:15;29.07;;;15.60;;
11572;SDS011;5842;52.426;4.886;2022-12-18T19:06:43;28.20;;;15.47;;
11572;SDS011;5842;52.426;4.886;2022-12-18T19:09:13;26.43;;;15.77;;
11572;SDS011;5842;52.426;4.886;2022-12-18T19:11:41;26.50;;;16.17;;
11572;SDS011;5842;52.426;4.886;2022-12-18T19:14:26;30.00;;;15.57;;
11572;SDS011;5842;52.426;4.886;2022-12-18T19:16:53;27.60;;;16.43;;
11572;SDS011;5842;52.426;4.886;2022-12-18T19:19:27;25.70;;;16.13;;
11572;SDS011;5842;52.426;4.886;2022-12-18T19:21:54;29.07;;;16.23;;
11572;SDS011;5842;52.426;4.886;2022-12-18T19:24:26;28.27;;;16.20;;
11572;SDS011;5842;52.426;4.886;2022-12-18T19:26:54;27.70;;;15.63;;
11572;SDS011;5842;52.426;4.886;2022-12-18T19:29:21;27.90;;;15.77;;
11572;SDS011;5842;52.426;4.886;2022-12-18T19:31:49;28.77;;;16.20;;
11572;SDS011;5842;52.426;4.886;2022-12-18T19:34:16;29.50;;;16.73;;
11572;SDS011;5842;52.426;4.886;2022-12-18T19:36:45;30.47;;;17.13;;
11572;SDS011;5842;52.426;4.886;2022-12-18T19:39:15;30.93;;;16.57;;
11572;SDS011;5842;52.426;4.886;2022-12-18T19:41:43;26.67;;;15.80;;
11572;SDS011;5842;52.426;4.886;2022-12-18T19:44:16;31.30;;;17.73;;
11572;SDS011;5842;52.426;4.886;2022-12-18T19:46:58;29.67;;;16.57;;
11572;SDS011;5842;52.426;4.886;2022-12-18T19:49:33;31.13;;;17.83;;
11572;SDS011;5842;52.426;4.886;2022-12-18T19:52:04;30.30;;;16.50;;
11572;SDS011;5842;52.426;4.886;2022-12-18T19:54:33;29.70;;;17.17;;
11572;SDS011;5842;52.426;4.886;2022-12-18T19:57:01;34.33;;;17.77;;
11572;SDS011;5842;52.426;4.886;2022-12-18T19:59:31;30.83;;;17.20;;
11572;SDS011;5842;52.426;4.886;2022-12-18T20:01:58;31.70;;;17.43;;
11572;SDS011;5842;52.426;4.886;2022-12-18T20:04:26;35.30;;;18.57;;
11572;SDS011;5842;52.426;4.886;2022-12-18T20:06:53;30.63;;;16.97;;
11572;SDS011;5842;52.426;4.886;2022-12-18T20:09:22;33.07;;;18.03;;
11572;SDS011;5842;52.426;4.886;2022-12-18T20:11:49;32.57;;;18.60;;
11572;SDS011;5842;52.426;4.886;2022-12-18T20:14:17;31.17;;;17.97;;
11572;SDS011;5842;52.426;4.886;2022-12-18T20:16:44;33.83;;;19.03;;
11572;SDS011;5842;52.426;4.886;2022-12-18T20:19:12;34.03;;;17.70;;
11572;SDS011;5842;52.426;4.886;2022-12-18T20:21:49;32.43;;;18.17;;
11572;SDS011;5842;52.426;4.886;2022-12-18T20:24:17;35.37;;;18.27;;
11572;SDS011;5842;52.426;4.886;2022-12-18T20:29:34;35.30;;;19.13;;
11572;SDS011;5842;52.426;4.886;2022-12-18T20:35:06;34.27;;;19.00;;
11572;SDS011;5842;52.426;4.886;2022-12-18T20:37:36;36.47;;;19.87;;
11572;SDS011;5842;52.426;4.886;2022-12-18T20:40:09;37.47;;;19.57;;
11572;SDS011;5842;52.426;4.886;2022-12-18T20:46:04;34.83;;;18.80;;
11572;SDS011;5842;52.426;4.886;2022-12-18T20:49:14;36.77;;;19.50;;
11572;SDS011;5842;52.426;4.886;2022-12-18T21:01:07;34.50;;;18.60;;
11572;SDS011;5842;52.426;4.886;2022-12-18T21:03:34;37.00;;;18.50;;
11572;SDS011;5842;52.426;4.886;2022-12-18T21:06:32;35.20;;;18.33;;
11572;SDS011;5842;52.426;4.886;2022-12-18T21:21:58;35.37;;;18.87;;
11572;SDS011;5842;52.426;4.886;2022-12-18T21:24:32;34.33;;;19.43;;
11572;SDS011;5842;52.426;4.886;2022-12-18T21:27:08;38.57;;;20.60;;
11572;SDS011;5842;52.426;4.886;2022-12-18T21:30:50;36.33;;;20.00;;
11572;SDS011;5842;52.426;4.886;2022-12-18T21:32:57;37.93;;;20.37;;
11572;SDS011;5842;52.426;4.886;2022-12-18T21:35:47;38.43;;;19.67;;
11572;SDS011;5842;52.426;4.886;2022-12-18T21:38:38;43.30;;;21.53;;
11572;SDS011;5842;52.426;4.886;2022-12-18T21:41:10;40.47;;;20.50;;
11572;SDS011;5842;52.426;4.886;2022-12-18T21:44:02;38.10;;;20.20;;
11572;SDS011;5842;52.426;4.886;2022-12-18T21:46:36;39.57;;;21.60;;
11572;SDS011;5842;52.426;4.886;2022-12-18T21:49:14;38.63;;;20.20;;
11572;SDS011;5842;52.426;4.886;2022-12-18T21:51:42;37.20;;;19.93;;
11572;SDS011;5842;52.426;4.886;2022-12-18T22:00:55;38.77;;;21.00;;
11572;SDS011;5842;52.426;4.886;2022-12-18T22:03:26;40.60;;;20.93;;
11572;SDS011;5842;52.426;4.886;2022-12-18T22:05:58;43.23;;;22.20;;
11572;SDS011;5842;52.426;4.886;2022-12-18T22:08:27;38.63;;;20.93;;
11572;SDS011;5842;52.426;4.886;2022-12-18T22:14:17;39.47;;;21.30;;
11572;SDS011;5842;52.426;4.886;2022-12-18T22:17:20;42.00;;;22.80;;
11572;SDS011;5842;52.426;4.886;2022-12-18T22:19:47;39.87;;;21.33;;
11572;SDS011;5842;52.426;4.886;2022-12-18T22:22:16;43.10;;;22.57;;
11572;SDS011;5842;52.426;4.886;2022-12-18T22:24:50;37.73;;;21.10;;
11572;SDS011;5842;52.426;4.886;2022-12-18T22:27:27;40.67;;;21.03;;
11572;SDS011;5842;52.426;4.886;2022-12-18T22:48:31;41.80;;;22.27;;
11572;SDS011;5842;52.426;4.886;2022-12-18T22:50:59;38.97;;;22.60;;
11572;SDS011;5842;52.426;4.886;2022-12-18T22:53:30;41.53;;;22.70;;
11572;SDS011;5842;52.426;4.886;2022-12-18T22:56:00;45.70;;;23.37;;
11572;SDS011;5842;52.426;4.886;2022-12-18T22:58:27;40.50;;;22.17;;
11572;SDS011;5842;52.426;4.886;2022-12-18T23:00:55;41.03;;;22.37;;
11572;SDS011;5842;52.426;4.886;2022-12-18T23:03:27;44.60;;;23.87;;
11572;SDS011;5842;52.426;4.886;2022-12-18T23:06:00;39.20;;;22.10;;
11572;SDS011;5842;52.426;4.886;2022-12-18T23:08:28;45.50;;;23.23;;
11572;SDS011;5842;52.426;4.886;2022-12-18T23:11:05;42.00;;;23.37;;
11572;SDS011;5842;52.426;4.886;2022-12-18T23:13:41;45.07;;;23.37;;
11572;SDS011;5842;52.426;4.886;2022-12-18T23:16:12;45.07;;;23.10;;
11572;SDS011;5842;52.426;4.886;2022-12-18T23:18:52;40.50;;;23.70;;
11572;SDS011;5842;52.426;4.886;2022-12-18T23:21:20;44.20;;;23.17;;
11572;SDS011;5842;52.426;4.886;2022-12-18T23:23:56;42.87;;;22.47;;
11572;SDS011;5842;52.426;4.886;2022-12-18T23:26:36;40.20;;;23.30;;
11572;SDS011;5842;52.426;4.886;2022-12-18T23:29:11;44.27;;;23.17;;
11572;SDS011;5842;52.426;4.886;2022-12-18T23:31:38;45.60;;;23.43;;
11572;SDS011;5842;52.426;4.886;2022-12-18T23:34:09;42.00;;;21.43;;
11572;SDS011;5842;52.426;4.886;2022-12-18T23:37:04;42.57;;;22.67;;
11572;SDS011;5842;52.426;4.886;2022-12-18T23:39:35;46.00;;;24.07;;
11572;SDS011;5842;52.426;4.886;2022-12-18T23:42:08;46.30;;;23.03;;
11572;SDS011;5842;52.426;4.886;2022-12-18T23:44:35;47.23;;;24.23;;
11572;SDS011;5842;52.426;4.886;2022-12-18T23:47:04;49.27;;;24.83;;
11572;SDS011;5842;52.426;4.886;2022-12-18T23:49:36;47.00;;;23.57;;
11572;SDS011;5842;52.426;4.886;2022-12-18T23:52:14;43.23;;;22.77;;
11572;SDS011;5842;52.426;4.886;2022-12-18T23:54:42;48.27;;;24.97;;
11572;SDS011;5842;52.426;4.886;2022-12-18T23:57:09;45.27;;;23.70;;
11572;SDS011;5842;52.426;4.886;2022-12-18T23:59:37;44.93;;;23.67;;
